sensor_id;sensor_type;location;lat;lon;timestamp;P1;durP1;ratioP1;P2;durP2;ratioP2
4963;SDS011;2497;47.410;9.740;2022-07-03T00:02:20;6.50;;;1.60;;
4963;SDS011;2497;47.410;9.740;2022-07-03T00:04:47;6.33;;;2.10;;
4963;SDS011;2497;47.410;9.740;2022-07-03T00:07:15;3.90;;;1.80;;
4963;SDS011;2497;47.410;9.740;2022-07-03T00:09:43;5.53;;;1.63;;
4963;SDS011;2497;47.410;9.740;2022-07-03T00:12:12;2.33;;;1.77;;
4963;SDS011;2497;47.410;9.740;2022-07-03T00:14:40;2.10;;;1.70;;
4963;SDS011;2497;47.410;9.740;2022-07-03T00:17:08;4.07;;;1.83;;
4963;SDS011;2497;47.410;9.740;2022-07-03T00:19:36;3.50;;;2.10;;
4963;SDS011;2497;47.410;9.740;2022-07-03T00:22:04;3.00;;;2.50;;
4963;SDS011;2497;47.410;9.740;2022-07-03T00:24:33;2.80;;;2.00;;
4963;SDS011;2497;47.410;9.740;2022-07-03T00:27:11;3.70;;;2.30;;
4963;SDS011;2497;47.410;9.740;2022-07-03T00:29:42;2.23;;;2.00;;
4963;SDS011;2497;47.410;9.740;2022-07-03T00:32:10;7.33;;;1.90;;
4963;SDS011;2497;47.410;9.740;2022-07-03T00:34:45;2.00;;;1.60;;
4963;SDS011;2497;47.410;9.740;2022-07-03T00:37:15;2.53;;;1.73;;
4963;SDS011;2497;47.410;9.740;2022-07-03T00:39:44;2.40;;;1.63;;
4963;SDS011;2497;47.410;9.740;2022-07-03T00:42:15;2.50;;;1.70;;
4963;SDS011;2497;47.410;9.740;2022-07-03T00:44:44;2.90;;;1.90;;
4963;SDS011;2497;47.410;9.740;2022-07-03T00:47:13;1.83;;;1.47;;
4963;SDS011;2497;47.410;9.740;2022-07-03T00:49:43;4.20;;;1.90;;
4963;SDS011;2497;47.410;9.740;2022-07-03T00:52:12;2.60;;;1.63;;
4963;SDS011;2497;47.410;9.740;2022-07-03T00:54:43;1.63;;;1.47;;
4963;SDS011;2497;47.410;9.740;2022-07-03T00:57:16;4.73;;;1.67;;
4963;SDS011;2497;47.410;9.740;2022-07-03T00:59:43;2.10;;;1.53;;
4963;SDS011;2497;47.410;9.740;2022-07-03T01:02:13;3.00;;;1.70;;
4963;SDS011;2497;47.410;9.740;2022-07-03T01:04:52;2.03;;;1.60;;
4963;SDS011;2497;47.410;9.740;2022-07-03T01:07:26;4.00;;;1.80;;
4963;SDS011;2497;47.410;9.740;2022-07-03T01:10:04;2.47;;;1.90;;
4963;SDS011;2497;47.410;9.740;2022-07-03T01:12:40;5.03;;;1.87;;
4963;SDS011;2497;47.410;9.740;2022-07-03T01:15:22;1.90;;;1.50;;
4963;SDS011;2497;47.410;9.740;2022-07-03T01:18:03;3.70;;;1.90;;
4963;SDS011;2497;47.410;9.740;2022-07-03T01:20:52;2.10;;;1.50;;
4963;SDS011;2497;47.410;9.740;2022-07-03T01:23:24;2.93;;;1.70;;
4963;SDS011;2497;47.410;9.740;2022-07-03T01:26:06;2.23;;;1.40;;
4963;SDS011;2497;47.410;9.740;2022-07-03T01:28:36;2.43;;;1.60;;
4963;SDS011;2497;47.410;9.740;2022-07-03T01:31:10;2.70;;;1.70;;
4963;SDS011;2497;47.410;9.740;2022-07-03T01:33:45;3.03;;;1.60;;
4963;SDS011;2497;47.410;9.740;2022-07-03T01:36:16;1.90;;;1.50;;
4963;SDS011;2497;47.410;9.740;2022-07-03T01:38:48;3.20;;;2.20;;
4963;SDS011;2497;47.410;9.740;2022-07-03T01:41:18;2.10;;;1.90;;
4963;SDS011;2497;47.410;9.740;2022-07-03T01:43:48;2.00;;;1.80;;
4963;SDS011;2497;47.410;9.740;2022-07-03T01:46:19;2.27;;;1.70;;
4963;SDS011;2497;47.410;9.740;2022-07-03T01:48:53;2.30;;;1.80;;
4963;SDS011;2497;47.410;9.740;2022-07-03T01:51:25;4.57;;;1.97;;
4963;SDS011;2497;47.410;9.740;2022-07-03T01:53:53;7.53;;;1.83;;
4963;SDS011;2497;47.410;9.740;2022-07-03T01:56:22;2.20;;;1.70;;
4963;SDS011;2497;47.410;9.740;2022-07-03T01:58:53;3.13;;;1.83;;
4963;SDS011;2497;47.410;9.740;2022-07-03T02:01:22;2.50;;;2.03;;
4963;SDS011;2497;47.410;9.740;2022-07-03T02:03:56;2.80;;;1.80;;
4963;SDS011;2497;47.410;9.740;2022-07-03T02:06:34;3.73;;;1.80;;
4963;SDS011;2497;47.410;9.740;2022-07-03T02:09:06;2.40;;;1.60;;
4963;SDS011;2497;47.410;9.740;2022-07-03T02:11:37;3.10;;;1.60;;
4963;SDS011;2497;47.410;9.740;2022-07-03T02:14:11;2.30;;;1.90;;
4963;SDS011;2497;47.410;9.740;2022-07-03T02:16:43;2.13;;;1.77;;
4963;SDS011;2497;47.410;9.740;2022-07-03T02:19:22;2.33;;;1.80;;
4963;SDS011;2497;47.410;9.740;2022-07-03T02:22:01;5.27;;;1.97;;
4963;SDS011;2497;47.410;9.740;2022-07-03T02:24:31;2.20;;;1.73;;
4963;SDS011;2497;47.410;9.740;2022-07-03T02:27:09;2.20;;;1.63;;
4963;SDS011;2497;47.410;9.740;2022-07-03T02:29:43;1.90;;;1.60;;
4963;SDS011;2497;47.410;9.740;2022-07-03T02:32:21;4.30;;;1.80;;
4963;SDS011;2497;47.410;9.740;2022-07-03T02:34:51;4.17;;;1.87;;
4963;SDS011;2497;47.410;9.740;2022-07-03T02:37:24;1.93;;;1.73;;
4963;SDS011;2497;47.410;9.740;2022-07-03T02:39:59;5.87;;;2.17;;
4963;SDS011;2497;47.410;9.740;2022-07-03T02:42:32;3.83;;;2.10;;
4963;SDS011;2497;47.410;9.740;2022-07-03T02:45:06;1.97;;;1.80;;
4963;SDS011;2497;47.410;9.740;2022-07-03T02:47:40;3.63;;;2.10;;
4963;SDS011;2497;47.410;9.740;2022-07-03T02:50:16;4.57;;;2.10;;
4963;SDS011;2497;47.410;9.740;2022-07-03T02:52:52;1.70;;;1.60;;
4963;SDS011;2497;47.410;9.740;2022-07-03T02:55:39;2.50;;;2.03;;
4963;SDS011;2497;47.410;9.740;2022-07-03T02:58:34;4.60;;;1.70;;
4963;SDS011;2497;47.410;9.740;2022-07-03T03:01:20;4.27;;;1.90;;
4963;SDS011;2497;47.410;9.740;2022-07-03T03:03:58;2.30;;;2.07;;
4963;SDS011;2497;47.410;9.740;2022-07-03T03:06:34;5.57;;;2.23;;
4963;SDS011;2497;47.410;9.740;2022-07-03T03:09:04;2.20;;;2.00;;
4963;SDS011;2497;47.410;9.740;2022-07-03T03:11:38;5.43;;;2.27;;
4963;SDS011;2497;47.410;9.740;2022-07-03T03:14:11;4.50;;;1.73;;
4963;SDS011;2497;47.410;9.740;2022-07-03T03:16:41;2.07;;;1.77;;
4963;SDS011;2497;47.410;9.740;2022-07-03T03:19:12;2.10;;;1.90;;
4963;SDS011;2497;47.410;9.740;2022-07-03T03:21:43;3.53;;;1.93;;
4963;SDS011;2497;47.410;9.740;2022-07-03T03:24:19;3.57;;;2.30;;
4963;SDS011;2497;47.410;9.740;2022-07-03T03:26:48;3.07;;;2.17;;
4963;SDS011;2497;47.410;9.740;2022-07-03T03:29:17;2.73;;;2.10;;
4963;SDS011;2497;47.410;9.740;2022-07-03T03:31:45;4.67;;;2.40;;
4963;SDS011;2497;47.410;9.740;2022-07-03T03:34:12;4.97;;;2.50;;
4963;SDS011;2497;47.410;9.740;2022-07-03T03:36:41;3.20;;;2.07;;
4963;SDS011;2497;47.410;9.740;2022-07-03T03:39:12;5.43;;;2.57;;
4963;SDS011;2497;47.410;9.740;2022-07-03T03:41:41;3.17;;;2.47;;
4963;SDS011;2497;47.410;9.740;2022-07-03T03:44:08;2.73;;;2.20;;
4963;SDS011;2497;47.410;9.740;2022-07-03T03:46:37;5.47;;;2.47;;
4963;SDS011;2497;47.410;9.740;2022-07-03T03:49:04;2.80;;;2.13;;
4963;SDS011;2497;47.410;9.740;2022-07-03T03:51:32;5.43;;;2.40;;
4963;SDS011;2497;47.410;9.740;2022-07-03T03:54:00;3.30;;;2.40;;
4963;SDS011;2497;47.410;9.740;2022-07-03T03:56:28;2.70;;;2.33;;
4963;SDS011;2497;47.410;9.740;2022-07-03T03:58:56;5.83;;;2.37;;
4963;SDS011;2497;47.410;9.740;2022-07-03T04:01:24;3.30;;;2.07;;
4963;SDS011;2497;47.410;9.740;2022-07-03T04:03:53;2.47;;;2.17;;
4963;SDS011;2497;47.410;9.740;2022-07-03T04:06:21;7.10;;;2.63;;
4963;SDS011;2497;47.410;9.740;2022-07-03T04:08:48;4.30;;;2.30;;
4963;SDS011;2497;47.410;9.740;2022-07-03T04:11:16;3.73;;;2.23;;
4963;SDS011;2497;47.410;9.740;2022-07-03T04:13:43;2.60;;;2.10;;
4963;SDS011;2497;47.410;9.740;2022-07-03T04:16:11;2.60;;;2.20;;
4963;SDS011;2497;47.410;9.740;2022-07-03T04:18:38;4.90;;;2.40;;
4963;SDS011;2497;47.410;9.740;2022-07-03T04:21:07;2.97;;;1.93;;
4963;SDS011;2497;47.410;9.740;2022-07-03T04:23:35;3.80;;;2.20;;
4963;SDS011;2497;47.410;9.740;2022-07-03T04:26:03;2.60;;;2.10;;
4963;SDS011;2497;47.410;9.740;2022-07-03T04:28:31;4.87;;;2.30;;
4963;SDS011;2497;47.410;9.740;2022-07-03T04:30:59;3.47;;;2.00;;
4963;SDS011;2497;47.410;9.740;2022-07-03T04:33:26;7.63;;;2.67;;
4963;SDS011;2497;47.410;9.740;2022-07-03T04:35:53;5.00;;;2.47;;
4963;SDS011;2497;47.410;9.740;2022-07-03T04:38:22;5.33;;;2.77;;
4963;SDS011;2497;47.410;9.740;2022-07-03T04:40:49;4.77;;;2.53;;
4963;SDS011;2497;47.410;9.740;2022-07-03T04:43:17;3.23;;;2.00;;
4963;SDS011;2497;47.410;9.740;2022-07-03T04:45:44;3.07;;;2.47;;
4963;SDS011;2497;47.410;9.740;2022-07-03T04:48:12;3.60;;;2.60;;
4963;SDS011;2497;47.410;9.740;2022-07-03T04:50:39;4.23;;;2.70;;
4963;SDS011;2497;47.410;9.740;2022-07-03T04:53:06;5.00;;;2.73;;
4963;SDS011;2497;47.410;9.740;2022-07-03T04:55:36;5.10;;;2.87;;
4963;SDS011;2497;47.410;9.740;2022-07-03T04:58:03;2.60;;;2.40;;
4963;SDS011;2497;47.410;9.740;2022-07-03T05:00:31;2.60;;;2.10;;
4963;SDS011;2497;47.410;9.740;2022-07-03T05:02:58;3.57;;;2.43;;
4963;SDS011;2497;47.410;9.740;2022-07-03T05:05:26;3.33;;;2.40;;
4963;SDS011;2497;47.410;9.740;2022-07-03T05:07:54;2.57;;;1.90;;
4963;SDS011;2497;47.410;9.740;2022-07-03T05:10:21;3.10;;;1.80;;
4963;SDS011;2497;47.410;9.740;2022-07-03T05:12:50;5.23;;;2.33;;
4963;SDS011;2497;47.410;9.740;2022-07-03T05:15:18;2.70;;;2.20;;
4963;SDS011;2497;47.410;9.740;2022-07-03T05:17:46;2.33;;;2.10;;
4963;SDS011;2497;47.410;9.740;2022-07-03T05:20:13;3.07;;;2.33;;
4963;SDS011;2497;47.410;9.740;2022-07-03T05:22:55;3.10;;;2.40;;
4963;SDS011;2497;47.410;9.740;2022-07-03T05:25:23;3.90;;;2.60;;
4963;SDS011;2497;47.410;9.740;2022-07-03T05:27:52;4.37;;;2.30;;
4963;SDS011;2497;47.410;9.740;2022-07-03T05:30:20;8.60;;;2.10;;
4963;SDS011;2497;47.410;9.740;2022-07-03T05:32:50;2.77;;;1.93;;
4963;SDS011;2497;47.410;9.740;2022-07-03T05:35:18;2.77;;;2.00;;
4963;SDS011;2497;47.410;9.740;2022-07-03T05:37:45;2.70;;;2.07;;
4963;SDS011;2497;47.410;9.740;2022-07-03T05:40:13;2.93;;;2.10;;
4963;SDS011;2497;47.410;9.740;2022-07-03T05:42:41;4.73;;;1.97;;
4963;SDS011;2497;47.410;9.740;2022-07-03T05:45:11;2.43;;;2.23;;
4963;SDS011;2497;47.410;9.740;2022-07-03T05:47:39;8.50;;;2.40;;
4963;SDS011;2497;47.410;9.740;2022-07-03T05:50:06;5.50;;;2.40;;
4963;SDS011;2497;47.410;9.740;2022-07-03T05:52:35;6.13;;;2.33;;
4963;SDS011;2497;47.410;9.740;2022-07-03T05:55:03;3.53;;;2.00;;
4963;SDS011;2497;47.410;9.740;2022-07-03T05:57:32;3.57;;;2.07;;
4963;SDS011;2497;47.410;9.740;2022-07-03T05:59:59;2.00;;;1.77;;
4963;SDS011;2497;47.410;9.740;2022-07-03T06:02:31;3.63;;;1.73;;
4963;SDS011;2497;47.410;9.740;2022-07-03T06:04:59;2.80;;;2.20;;
4963;SDS011;2497;47.410;9.740;2022-07-03T06:07:26;2.17;;;1.97;;
4963;SDS011;2497;47.410;9.740;2022-07-03T06:09:54;2.83;;;2.17;;
4963;SDS011;2497;47.410;9.740;2022-07-03T06:12:22;3.27;;;2.10;;
4963;SDS011;2497;47.410;9.740;2022-07-03T06:14:49;5.30;;;2.33;;
4963;SDS011;2497;47.410;9.740;2022-07-03T06:17:16;2.50;;;2.30;;
4963;SDS011;2497;47.410;9.740;2022-07-03T06:19:46;3.10;;;2.17;;
4963;SDS011;2497;47.410;9.740;2022-07-03T06:22:13;2.90;;;2.20;;
4963;SDS011;2497;47.410;9.740;2022-07-03T06:24:41;3.47;;;2.30;;
4963;SDS011;2497;47.410;9.740;2022-07-03T06:27:09;2.70;;;2.20;;
4963;SDS011;2497;47.410;9.740;2022-07-03T06:29:36;5.00;;;2.37;;
4963;SDS011;2497;47.410;9.740;2022-07-03T06:32:04;2.23;;;2.03;;
4963;SDS011;2497;47.410;9.740;2022-07-03T06:34:31;6.97;;;2.87;;
4963;SDS011;2497;47.410;9.740;2022-07-03T06:37:01;3.37;;;2.40;;
4963;SDS011;2497;47.410;9.740;2022-07-03T06:39:29;3.90;;;2.77;;
4963;SDS011;2497;47.410;9.740;2022-07-03T06:41:57;2.87;;;2.40;;
4963;SDS011;2497;47.410;9.740;2022-07-03T06:44:24;3.33;;;2.67;;
4963;SDS011;2497;47.410;9.740;2022-07-03T06:46:52;4.20;;;2.50;;
4963;SDS011;2497;47.410;9.740;2022-07-03T06:49:20;5.20;;;2.50;;
4963;SDS011;2497;47.410;9.740;2022-07-03T06:51:48;3.20;;;2.50;;
4963;SDS011;2497;47.410;9.740;2022-07-03T06:54:17;2.43;;;2.10;;
4963;SDS011;2497;47.410;9.740;2022-07-03T06:56:45;2.70;;;2.30;;
4963;SDS011;2497;47.410;9.740;2022-07-03T06:59:12;3.20;;;2.20;;
4963;SDS011;2497;47.410;9.740;2022-07-03T07:01:40;3.67;;;2.37;;
4963;SDS011;2497;47.410;9.740;2022-07-03T07:04:08;4.20;;;2.27;;
4963;SDS011;2497;47.410;9.740;2022-07-03T07:06:36;6.67;;;2.30;;
4963;SDS011;2497;47.410;9.740;2022-07-03T07:09:03;4.53;;;2.50;;
4963;SDS011;2497;47.410;9.740;2022-07-03T07:11:32;3.10;;;2.60;;
4963;SDS011;2497;47.410;9.740;2022-07-03T07:13:59;2.70;;;2.50;;
4963;SDS011;2497;47.410;9.740;2022-07-03T07:16:27;2.90;;;2.10;;
4963;SDS011;2497;47.410;9.740;2022-07-03T07:18:54;2.90;;;2.60;;
4963;SDS011;2497;47.410;9.740;2022-07-03T07:21:22;3.10;;;2.80;;
4963;SDS011;2497;47.410;9.740;2022-07-03T07:23:50;2.83;;;2.23;;
4963;SDS011;2497;47.410;9.740;2022-07-03T07:26:17;3.23;;;2.93;;
4963;SDS011;2497;47.410;9.740;2022-07-03T07:28:47;3.20;;;2.60;;
4963;SDS011;2497;47.410;9.740;2022-07-03T07:31:14;3.23;;;2.90;;
4963;SDS011;2497;47.410;9.740;2022-07-03T07:33:41;4.23;;;2.50;;
4963;SDS011;2497;47.410;9.740;2022-07-03T07:36:09;2.87;;;2.50;;
4963;SDS011;2497;47.410;9.740;2022-07-03T07:38:36;4.77;;;2.50;;
4963;SDS011;2497;47.410;9.740;2022-07-03T07:41:04;3.40;;;2.40;;
4963;SDS011;2497;47.410;9.740;2022-07-03T07:43:31;8.00;;;2.10;;
4963;SDS011;2497;47.410;9.740;2022-07-03T07:46:00;2.83;;;2.00;;
4963;SDS011;2497;47.410;9.740;2022-07-03T07:48:28;4.07;;;2.60;;
4963;SDS011;2497;47.410;9.740;2022-07-03T07:50:56;3.33;;;2.53;;
4963;SDS011;2497;47.410;9.740;2022-07-03T07:53:23;8.90;;;2.53;;
4963;SDS011;2497;47.410;9.740;2022-07-03T07:55:51;3.93;;;1.97;;
4963;SDS011;2497;47.410;9.740;2022-07-03T07:58:19;2.87;;;2.57;;
4963;SDS011;2497;47.410;9.740;2022-07-03T08:00:47;3.10;;;2.27;;
4963;SDS011;2497;47.410;9.740;2022-07-03T08:03:34;3.40;;;2.60;;
4963;SDS011;2497;47.410;9.740;2022-07-03T08:06:18;2.90;;;2.10;;
4963;SDS011;2497;47.410;9.740;2022-07-03T08:08:46;2.63;;;1.83;;
4963;SDS011;2497;47.410;9.740;2022-07-03T08:11:13;6.43;;;2.77;;
4963;SDS011;2497;47.410;9.740;2022-07-03T08:13:41;2.97;;;2.47;;
4963;SDS011;2497;47.410;9.740;2022-07-03T08:16:11;4.93;;;2.50;;
4963;SDS011;2497;47.410;9.740;2022-07-03T08:18:41;6.03;;;2.30;;
4963;SDS011;2497;47.410;9.740;2022-07-03T08:21:09;6.47;;;2.13;;
4963;SDS011;2497;47.410;9.740;2022-07-03T08:23:37;2.70;;;2.20;;
4963;SDS011;2497;47.410;9.740;2022-07-03T08:26:04;2.90;;;2.60;;
4963;SDS011;2497;47.410;9.740;2022-07-03T08:28:32;4.30;;;2.20;;
4963;SDS011;2497;47.410;9.740;2022-07-03T08:30:59;4.40;;;2.57;;
4963;SDS011;2497;47.410;9.740;2022-07-03T08:33:26;5.43;;;2.90;;
4963;SDS011;2497;47.410;9.740;2022-07-03T08:35:55;3.93;;;2.90;;
4963;SDS011;2497;47.410;9.740;2022-07-03T08:38:24;2.53;;;2.33;;
4963;SDS011;2497;47.410;9.740;2022-07-03T08:40:56;3.77;;;2.37;;
4963;SDS011;2497;47.410;9.740;2022-07-03T08:43:24;2.53;;;2.33;;
4963;SDS011;2497;47.410;9.740;2022-07-03T08:45:52;4.50;;;2.40;;
4963;SDS011;2497;47.410;9.740;2022-07-03T08:48:20;3.37;;;2.50;;
4963;SDS011;2497;47.410;9.740;2022-07-03T08:50:48;2.83;;;2.43;;
4963;SDS011;2497;47.410;9.740;2022-07-03T08:53:18;3.40;;;2.83;;
4963;SDS011;2497;47.410;9.740;2022-07-03T08:55:47;3.63;;;2.83;;
4963;SDS011;2497;47.410;9.740;2022-07-03T08:58:15;3.50;;;2.50;;
4963;SDS011;2497;47.410;9.740;2022-07-03T09:00:44;2.90;;;2.60;;
4963;SDS011;2497;47.410;9.740;2022-07-03T09:03:14;2.40;;;2.20;;
4963;SDS011;2497;47.410;9.740;2022-07-03T09:05:41;3.67;;;2.40;;
4963;SDS011;2497;47.410;9.740;2022-07-03T09:08:09;2.60;;;2.37;;
4963;SDS011;2497;47.410;9.740;2022-07-03T09:10:38;2.60;;;2.40;;
4963;SDS011;2497;47.410;9.740;2022-07-03T09:13:06;4.57;;;2.53;;
4963;SDS011;2497;47.410;9.740;2022-07-03T09:15:33;3.17;;;2.80;;
4963;SDS011;2497;47.410;9.740;2022-07-03T09:18:03;3.00;;;2.70;;
4963;SDS011;2497;47.410;9.740;2022-07-03T09:20:32;3.80;;;2.87;;
4963;SDS011;2497;47.410;9.740;2022-07-03T09:23:10;2.83;;;2.33;;
4963;SDS011;2497;47.410;9.740;2022-07-03T09:25:56;4.90;;;2.53;;
4963;SDS011;2497;47.410;9.740;2022-07-03T09:31:09;2.67;;;2.37;;
4963;SDS011;2497;47.410;9.740;2022-07-03T09:33:47;4.37;;;2.40;;
4963;SDS011;2497;47.410;9.740;2022-07-03T09:36:16;3.30;;;2.47;;
4963;SDS011;2497;47.410;9.740;2022-07-03T09:38:44;3.90;;;2.20;;
4963;SDS011;2497;47.410;9.740;2022-07-03T09:41:13;2.20;;;2.00;;
4963;SDS011;2497;47.410;9.740;2022-07-03T09:43:41;2.80;;;2.50;;
4963;SDS011;2497;47.410;9.740;2022-07-03T09:46:09;7.43;;;3.00;;
4963;SDS011;2497;47.410;9.740;2022-07-03T09:48:37;2.97;;;2.17;;
4963;SDS011;2497;47.410;9.740;2022-07-03T09:51:14;3.07;;;2.43;;
4963;SDS011;2497;47.410;9.740;2022-07-03T09:53:44;2.97;;;2.77;;
4963;SDS011;2497;47.410;9.740;2022-07-03T09:56:17;2.63;;;2.27;;
4963;SDS011;2497;47.410;9.740;2022-07-03T09:59:05;4.13;;;2.20;;
4963;SDS011;2497;47.410;9.740;2022-07-03T10:01:35;2.27;;;2.07;;
4963;SDS011;2497;47.410;9.740;2022-07-03T10:04:10;2.30;;;2.10;;
4963;SDS011;2497;47.410;9.740;2022-07-03T10:06:45;2.30;;;2.10;;
4963;SDS011;2497;47.410;9.740;2022-07-03T10:09:14;2.00;;;1.90;;
4963;SDS011;2497;47.410;9.740;2022-07-03T10:11:44;2.80;;;2.00;;
4963;SDS011;2497;47.410;9.740;2022-07-03T10:14:12;2.10;;;1.87;;
4963;SDS011;2497;47.410;9.740;2022-07-03T10:16:41;3.20;;;2.13;;
4963;SDS011;2497;47.410;9.740;2022-07-03T10:19:11;3.57;;;2.20;;
4963;SDS011;2497;47.410;9.740;2022-07-03T10:21:40;2.37;;;2.00;;
4963;SDS011;2497;47.410;9.740;2022-07-03T10:24:08;2.43;;;2.00;;
4963;SDS011;2497;47.410;9.740;2022-07-03T10:26:38;2.73;;;2.20;;
4963;SDS011;2497;47.410;9.740;2022-07-03T10:29:07;2.63;;;1.87;;
4963;SDS011;2497;47.410;9.740;2022-07-03T10:31:40;2.13;;;1.93;;
4963;SDS011;2497;47.410;9.740;2022-07-03T10:34:12;1.87;;;1.77;;
4963;SDS011;2497;47.410;9.740;2022-07-03T10:36:43;1.70;;;1.60;;
4963;SDS011;2497;47.410;9.740;2022-07-03T10:39:13;2.30;;;2.10;;
4963;SDS011;2497;47.410;9.740;2022-07-03T10:41:48;4.43;;;2.00;;
4963;SDS011;2497;47.410;9.740;2022-07-03T10:44:51;2.77;;;1.67;;
4963;SDS011;2497;47.410;9.740;2022-07-03T10:47:37;1.50;;;1.40;;
4963;SDS011;2497;47.410;9.740;2022-07-03T10:50:14;2.50;;;1.60;;
4963;SDS011;2497;47.410;9.740;2022-07-03T10:52:43;3.00;;;1.63;;
4963;SDS011;2497;47.410;9.740;2022-07-03T10:55:12;1.83;;;1.40;;
4963;SDS011;2497;47.410;9.740;2022-07-03T10:57:42;4.03;;;1.40;;
4963;SDS011;2497;47.410;9.740;2022-07-03T11:00:33;1.60;;;1.50;;
4963;SDS011;2497;47.410;9.740;2022-07-03T11:06:22;1.40;;;1.30;;
4963;SDS011;2497;47.410;9.740;2022-07-03T11:09:28;2.70;;;1.20;;
4963;SDS011;2497;47.410;9.740;2022-07-03T11:11:56;1.20;;;1.10;;
4963;SDS011;2497;47.410;9.740;2022-07-03T11:14:23;1.20;;;1.10;;
4963;SDS011;2497;47.410;9.740;2022-07-03T11:19:46;1.50;;;1.10;;
4963;SDS011;2497;47.410;9.740;2022-07-03T11:22:36;1.20;;;1.03;;
4963;SDS011;2497;47.410;9.740;2022-07-03T11:25:10;2.00;;;0.80;;
4963;SDS011;2497;47.410;9.740;2022-07-03T11:27:40;1.07;;;0.97;;
4963;SDS011;2497;47.410;9.740;2022-07-03T11:30:08;1.90;;;1.20;;
4963;SDS011;2497;47.410;9.740;2022-07-03T11:32:45;2.93;;;1.17;;
4963;SDS011;2497;47.410;9.740;2022-07-03T11:38:13;3.47;;;1.17;;
4963;SDS011;2497;47.410;9.740;2022-07-03T11:40:43;3.90;;;1.53;;
4963;SDS011;2497;47.410;9.740;2022-07-03T11:43:12;1.20;;;1.10;;
4963;SDS011;2497;47.410;9.740;2022-07-03T11:45:39;6.87;;;1.37;;
4963;SDS011;2497;47.410;9.740;2022-07-03T11:48:11;1.57;;;1.00;;
4963;SDS011;2497;47.410;9.740;2022-07-03T11:50:40;1.10;;;1.00;;
4963;SDS011;2497;47.410;9.740;2022-07-03T11:53:22;1.10;;;1.03;;
4963;SDS011;2497;47.410;9.740;2022-07-03T11:55:51;1.30;;;1.10;;
4963;SDS011;2497;47.410;9.740;2022-07-03T11:58:22;1.20;;;1.10;;
4963;SDS011;2497;47.410;9.740;2022-07-03T12:00:50;3.07;;;1.13;;
4963;SDS011;2497;47.410;9.740;2022-07-03T12:03:24;1.30;;;1.10;;
4963;SDS011;2497;47.410;9.740;2022-07-03T12:05:53;1.10;;;1.00;;
4963;SDS011;2497;47.410;9.740;2022-07-03T12:08:23;1.07;;;0.97;;
4963;SDS011;2497;47.410;9.740;2022-07-03T12:10:55;0.93;;;0.93;;
4963;SDS011;2497;47.410;9.740;2022-07-03T12:13:24;2.63;;;1.17;;
4963;SDS011;2497;47.410;9.740;2022-07-03T12:15:52;1.37;;;1.27;;
4963;SDS011;2497;47.410;9.740;2022-07-03T12:18:20;3.87;;;1.10;;
4963;SDS011;2497;47.410;9.740;2022-07-03T12:20:51;3.83;;;1.10;;
4963;SDS011;2497;47.410;9.740;2022-07-03T12:23:18;1.00;;;0.90;;
4963;SDS011;2497;47.410;9.740;2022-07-03T12:25:46;1.20;;;1.00;;
4963;SDS011;2497;47.410;9.740;2022-07-03T12:28:14;1.30;;;1.20;;
4963;SDS011;2497;47.410;9.740;2022-07-03T12:30:41;2.93;;;0.90;;
4963;SDS011;2497;47.410;9.740;2022-07-03T12:33:11;0.90;;;0.90;;
4963;SDS011;2497;47.410;9.740;2022-07-03T12:35:39;1.60;;;1.33;;
4963;SDS011;2497;47.410;9.740;2022-07-03T12:38:08;1.73;;;1.40;;
4963;SDS011;2497;47.410;9.740;2022-07-03T12:40:36;2.63;;;1.13;;
4963;SDS011;2497;47.410;9.740;2022-07-03T12:43:03;1.73;;;1.40;;
4963;SDS011;2497;47.410;9.740;2022-07-03T12:45:32;3.60;;;1.33;;
4963;SDS011;2497;47.410;9.740;2022-07-03T12:48:00;1.30;;;1.20;;
4963;SDS011;2497;47.410;9.740;2022-07-03T12:53:28;1.60;;;1.10;;
4963;SDS011;2497;47.410;9.740;2022-07-03T12:55:59;1.70;;;1.37;;
4963;SDS011;2497;47.410;9.740;2022-07-03T12:58:27;1.57;;;1.40;;
4963;SDS011;2497;47.410;9.740;2022-07-03T13:01:23;2.17;;;1.47;;
4963;SDS011;2497;47.410;9.740;2022-07-03T13:03:51;3.70;;;1.10;;
4963;SDS011;2497;47.410;9.740;2022-07-03T13:06:19;1.43;;;1.10;;
4963;SDS011;2497;47.410;9.740;2022-07-03T13:08:56;1.20;;;1.10;;
4963;SDS011;2497;47.410;9.740;2022-07-03T13:11:31;1.70;;;0.97;;
4963;SDS011;2497;47.410;9.740;2022-07-03T13:14:07;1.60;;;1.03;;
4963;SDS011;2497;47.410;9.740;2022-07-03T13:16:36;1.60;;;1.10;;
4963;SDS011;2497;47.410;9.740;2022-07-03T13:19:09;1.00;;;0.90;;
4963;SDS011;2497;47.410;9.740;2022-07-03T13:21:40;1.73;;;1.20;;
4963;SDS011;2497;47.410;9.740;2022-07-03T13:24:12;1.00;;;0.90;;
4963;SDS011;2497;47.410;9.740;2022-07-03T13:26:42;1.93;;;1.10;;
4963;SDS011;2497;47.410;9.740;2022-07-03T13:29:10;2.43;;;1.23;;
4963;SDS011;2497;47.410;9.740;2022-07-03T13:31:38;1.30;;;1.03;;
4963;SDS011;2497;47.410;9.740;2022-07-03T13:34:07;2.10;;;1.10;;
4963;SDS011;2497;47.410;9.740;2022-07-03T13:36:34;0.90;;;0.87;;
4963;SDS011;2497;47.410;9.740;2022-07-03T13:39:02;1.50;;;0.90;;
4963;SDS011;2497;47.410;9.740;2022-07-03T13:41:32;2.00;;;1.07;;
4963;SDS011;2497;47.410;9.740;2022-07-03T13:43:59;1.57;;;1.33;;
4963;SDS011;2497;47.410;9.740;2022-07-03T13:46:26;1.37;;;1.20;;
4963;SDS011;2497;47.410;9.740;2022-07-03T13:48:54;1.30;;;1.20;;
4963;SDS011;2497;47.410;9.740;2022-07-03T13:51:22;3.93;;;2.07;;
4963;SDS011;2497;47.410;9.740;2022-07-03T13:53:49;1.40;;;1.20;;
4963;SDS011;2497;47.410;9.740;2022-07-03T13:56:17;3.20;;;1.30;;
4963;SDS011;2497;47.410;9.740;2022-07-03T13:58:46;2.87;;;1.00;;
4963;SDS011;2497;47.410;9.740;2022-07-03T14:01:14;0.90;;;0.90;;
4963;SDS011;2497;47.410;9.740;2022-07-03T14:03:42;1.30;;;1.10;;
4963;SDS011;2497;47.410;9.740;2022-07-03T14:06:09;2.13;;;1.27;;
4963;SDS011;2497;47.410;9.740;2022-07-03T14:08:37;1.20;;;1.10;;
4963;SDS011;2497;47.410;9.740;2022-07-03T14:11:04;1.63;;;1.00;;
4963;SDS011;2497;47.410;9.740;2022-07-03T14:13:32;2.30;;;1.13;;
4963;SDS011;2497;47.410;9.740;2022-07-03T14:16:00;1.20;;;1.10;;
4963;SDS011;2497;47.410;9.740;2022-07-03T14:18:28;1.20;;;0.97;;
4963;SDS011;2497;47.410;9.740;2022-07-03T14:20:56;1.30;;;1.17;;
4963;SDS011;2497;47.410;9.740;2022-07-03T14:23:24;2.80;;;1.10;;
4963;SDS011;2497;47.410;9.740;2022-07-03T14:25:52;1.47;;;1.37;;
4963;SDS011;2497;47.410;9.740;2022-07-03T14:28:19;1.80;;;1.30;;
4963;SDS011;2497;47.410;9.740;2022-07-03T14:31:05;1.00;;;0.90;;
4963;SDS011;2497;47.410;9.740;2022-07-03T14:33:58;3.90;;;2.60;;
4963;SDS011;2497;47.410;9.740;2022-07-03T14:36:26;1.40;;;1.30;;
4963;SDS011;2497;47.410;9.740;2022-07-03T14:38:53;1.00;;;1.00;;
4963;SDS011;2497;47.410;9.740;2022-07-03T14:41:22;1.07;;;1.00;;
4963;SDS011;2497;47.410;9.740;2022-07-03T14:43:49;1.20;;;1.10;;
4963;SDS011;2497;47.410;9.740;2022-07-03T14:46:18;3.13;;;1.20;;
4963;SDS011;2497;47.410;9.740;2022-07-03T14:48:46;1.10;;;1.00;;
4963;SDS011;2497;47.410;9.740;2022-07-03T14:51:13;1.40;;;1.30;;
4963;SDS011;2497;47.410;9.740;2022-07-03T14:53:41;1.20;;;1.10;;
4963;SDS011;2497;47.410;9.740;2022-07-03T14:56:10;2.53;;;1.40;;
4963;SDS011;2497;47.410;9.740;2022-07-03T14:58:44;2.10;;;1.10;;
4963;SDS011;2497;47.410;9.740;2022-07-03T15:01:16;1.40;;;1.00;;
4963;SDS011;2497;47.410;9.740;2022-07-03T15:03:49;1.90;;;1.20;;
4963;SDS011;2497;47.410;9.740;2022-07-03T15:06:22;1.20;;;1.10;;
4963;SDS011;2497;47.410;9.740;2022-07-03T15:08:52;1.30;;;1.20;;
4963;SDS011;2497;47.410;9.740;2022-07-03T15:11:30;1.30;;;1.20;;
4963;SDS011;2497;47.410;9.740;2022-07-03T15:14:23;1.83;;;1.10;;
4963;SDS011;2497;47.410;9.740;2022-07-03T15:16:53;2.00;;;1.30;;
4963;SDS011;2497;47.410;9.740;2022-07-03T15:19:21;1.73;;;1.50;;
4963;SDS011;2497;47.410;9.740;2022-07-03T15:21:51;1.57;;;1.17;;
4963;SDS011;2497;47.410;9.740;2022-07-03T15:24:18;1.50;;;1.30;;
4963;SDS011;2497;47.410;9.740;2022-07-03T15:26:51;2.33;;;1.30;;
4963;SDS011;2497;47.410;9.740;2022-07-03T15:29:19;3.20;;;1.50;;
4963;SDS011;2497;47.410;9.740;2022-07-03T15:31:46;1.50;;;1.40;;
4963;SDS011;2497;47.410;9.740;2022-07-03T15:34:17;3.37;;;1.37;;
4963;SDS011;2497;47.410;9.740;2022-07-03T15:36:51;3.37;;;1.57;;
4963;SDS011;2497;47.410;9.740;2022-07-03T15:39:29;2.80;;;1.47;;
4963;SDS011;2497;47.410;9.740;2022-07-03T15:42:01;4.00;;;2.20;;
4963;SDS011;2497;47.410;9.740;2022-07-03T15:44:37;3.60;;;1.70;;
4963;SDS011;2497;47.410;9.740;2022-07-03T15:47:11;1.90;;;1.53;;
4963;SDS011;2497;47.410;9.740;2022-07-03T15:49:56;4.00;;;1.73;;
4963;SDS011;2497;47.410;9.740;2022-07-03T15:52:25;2.53;;;1.93;;